Time;durP1;ratioP1;P1;durP2;ratioP2;P2;SDS_P1;SDS_P2;PMS_P1;PMS_P2;Temp;Humidity;BMP_temperature;BMP_pressure;BME280_temperature;BME280_humidity;BME280_pressure;Samples;Min_cycle;Max_cycle;Signal;HPM_P1;HPM_P2
2021/08/22 00:00:16;;;;;;;2.50;1.75;;;25.80;55.50;;;;;;5037194;28;20029;-60
2021/08/22 00:02:41;;;;;;;2.55;1.80;;;25.80;55.50;;;;;;5042398;28;20044;-62
2021/08/22 00:05:07;;;;;;;2.50;1.80;;;25.80;55.50;;;;;;5036216;28;20029;-61
2021/08/22 00:07:33;;;;;;;2.60;2.05;;;25.80;55.40;;;;;;5042254;28;20528;-63
2021/08/22 00:10:00;;;;;;;2.58;1.88;;;25.70;55.40;;;;;;5043308;28;20104;-60
2021/08/22 00:12:26;;;;;;;2.55;2.10;;;25.80;55.40;;;;;;5045294;28;20508;-61
2021/08/22 00:14:52;;;;;;;2.50;1.92;;;25.80;55.40;;;;;;5039863;28;20061;-61
2021/08/22 00:17:17;;;;;;;2.63;2.08;;;25.80;55.40;;;;;;5044581;28;20048;-62
2021/08/22 00:19:44;;;;;;;2.20;1.70;;;25.80;55.40;;;;;;5044368;28;20021;-61
2021/08/22 00:22:10;;;;;;;2.40;1.80;;;25.70;55.40;;;;;;5047621;28;20021;-62
2021/08/22 00:24:36;;;;;;;2.38;1.80;;;25.70;55.30;;;;;;5047387;28;20029;-62
2021/08/22 00:27:01;;;;;;;2.63;1.90;;;25.70;55.30;;;;;;5044743;28;20029;-63
2021/08/22 00:29:27;;;;;;;2.80;2.20;;;25.70;55.30;;;;;;5059140;28;20033;-62
2021/08/22 00:31:52;;;;;;;2.47;1.98;;;25.70;55.30;;;;;;5051252;28;20025;-63
2021/08/22 00:34:18;;;;;;;2.65;1.98;;;25.70;55.30;;;;;;5046316;28;20025;-62
2021/08/22 00:36:44;;;;;;;3.20;2.08;;;25.70;55.30;;;;;;5037898;28;20033;-62
2021/08/22 00:39:09;;;;;;;2.47;1.90;;;25.70;55.30;;;;;;5054161;28;20040;-62
2021/08/22 00:41:35;;;;;;;2.40;1.90;;;25.70;55.30;;;;;;5046378;28;20111;-62
2021/08/22 00:44:01;;;;;;;2.58;1.90;;;25.70;55.30;;;;;;5046570;28;20047;-62
2021/08/22 00:46:27;;;;;;;2.55;2.03;;;25.70;55.30;;;;;;5044670;28;20055;-62
2021/08/22 00:48:52;;;;;;;2.63;1.92;;;25.70;55.30;;;;;;5045324;28;20025;-62
2021/08/22 00:51:19;;;;;;;2.47;1.83;;;25.70;55.30;;;;;;5047137;28;20017;-62
2021/08/22 00:53:45;;;;;;;2.90;2.13;;;25.70;55.20;;;;;;5045914;28;20052;-62
2021/08/22 00:56:15;;;;;;;3.30;2.05;;;25.70;55.20;;;;;;5047101;28;20503;-62
2021/08/22 00:58:40;;;;;;;3.25;2.20;;;25.70;55.80;;;;;;5045068;28;20453;-61
2021/08/22 01:01:20;;;;;;;2.40;1.70;;;25.70;55.20;;;;;;5028120;28;20167;-60
2021/08/22 01:03:54;;;;;;;2.58;1.90;;;25.70;55.20;;;;;;5053205;28;20033;-62
2021/08/22 01:06:20;;;;;;;2.58;1.75;;;25.70;55.20;;;;;;5059501;28;20085;-61
2021/08/22 01:09:11;;;;;;;2.50;2.00;;;25.70;55.50;;;;;;5044635;28;20670;-60
2021/08/22 01:11:39;;;;;;;2.63;1.95;;;25.70;55.20;;;;;;5040940;28;20040;-61
2021/08/22 01:14:11;;;;;;;2.58;2.00;;;25.70;55.20;;;;;;5045968;28;20043;-61
2021/08/22 01:16:40;;;;;;;2.30;1.75;;;25.70;55.20;;;;;;5050957;28;20163;-62
2021/08/22 01:19:13;;;;;;;;;;;25.70;55.70;;;;;;5044075;28;20029;-61
2021/08/22 01:21:40;;;;;;;2.50;1.80;;;25.70;55.20;;;;;;5036004;28;20011;-62
2021/08/22 01:24:07;;;;;;;2.33;1.75;;;25.70;55.20;;;;;;5038652;28;20034;-61
2021/08/22 01:26:38;;;;;;;2.30;1.77;;;25.70;55.20;;;;;;5031131;28;20060;-63
2021/08/22 01:29:05;;;;;;;2.72;1.90;;;25.70;55.20;;;;;;5042826;28;20071;-62
2021/08/22 01:31:45;;;;;;;2.17;1.88;;;25.70;55.20;;;;;;5036889;28;20140;-62
2021/08/22 01:34:11;;;;;;;2.92;2.03;;;25.70;55.20;;;;;;5041890;28;20016;-62
2021/08/22 01:36:39;;;;;;;2.35;1.90;;;25.70;55.20;;;;;;5033736;28;20075;-62
2021/08/22 01:39:06;;;;;;;2.47;1.75;;;25.70;55.20;;;;;;5033416;28;20043;-61
2021/08/22 01:41:31;;;;;;;2.20;1.80;;;25.60;55.10;;;;;;5041606;28;20041;-62
2021/08/22 01:43:58;;;;;;;2.40;1.90;;;25.70;55.20;;;;;;5047094;28;20044;-60
2021/08/22 01:46:32;;;;;;;2.65;2.00;;;25.60;55.10;;;;;;5041836;28;20056;-62
2021/08/22 01:48:59;;;;;;;2.60;1.83;;;25.60;55.10;;;;;;5038136;28;20043;-62
2021/08/22 01:51:29;;;;;;;2.58;1.90;;;25.60;55.10;;;;;;5046515;28;20031;-62
2021/08/22 01:53:59;;;;;;;2.50;1.85;;;25.60;55.10;;;;;;5046302;28;20021;-62
2021/08/22 01:56:29;;;;;;;2.40;1.80;;;25.60;55.10;;;;;;5034028;28;20048;-62
2021/08/22 01:58:55;;;;;;;2.80;2.10;;;25.60;55.10;;;;;;5044293;28;20032;-60
2021/08/22 02:01:21;;;;;;;2.95;2.00;;;25.60;55.10;;;;;;5042858;28;20360;-61
2021/08/22 02:03:51;;;;;;;2.67;2.08;;;25.60;55.10;;;;;;5043636;28;20315;-61
2021/08/22 02:06:20;;;;;;;2.33;1.88;;;25.60;55.10;;;;;;5046806;28;20114;-61
2021/08/22 02:08:48;;;;;;;;;;;25.60;55.10;;;;;;5049712;28;20090;-62
2021/08/22 02:11:24;;;;;;;2.38;1.75;;;25.60;55.10;;;;;;5040698;28;19919;-61
2021/08/22 02:13:51;;;;;;;2.65;1.90;;;25.60;55.10;;;;;;5046943;28;20064;-62
2021/08/22 02:16:23;;;;;;;2.40;1.80;;;25.60;55.10;;;;;;5029877;28;20029;-62
2021/08/22 02:18:52;;;;;;;2.67;1.80;;;25.60;55.10;;;;;;5028618;28;20034;-61
2021/08/22 02:21:19;;;;;;;2.30;1.80;;;25.60;55.10;;;;;;5035265;28;20045;-62
2021/08/22 02:23:46;;;;;;;2.60;2.00;;;25.50;55.00;;;;;;5048070;28;20552;-61
2021/08/22 02:26:12;;;;;;;2.45;1.90;;;25.60;55.10;;;;;;5051729;28;20530;-61
2021/08/22 02:28:38;;;;;;;2.63;2.00;;;25.60;55.10;;;;;;5034715;28;20017;-61
2021/08/22 02:31:03;;;;;;;2.70;2.00;;;25.60;55.10;;;;;;5045764;28;20628;-61
2021/08/22 02:33:30;;;;;;;2.60;2.10;;;25.50;55.00;;;;;;5049514;28;20102;-61
2021/08/22 02:35:55;;;;;;;2.83;1.98;;;25.50;55.00;;;;;;5047757;28;20121;-62
2021/08/22 02:38:21;;;;;;;2.33;1.80;;;25.50;55.00;;;;;;5039547;28;20203;-60
2021/08/22 02:40:47;;;;;;;2.63;1.90;;;25.50;55.00;;;;;;5032394;28;20121;-62
2021/08/22 02:43:12;;;;;;;2.90;2.30;;;25.50;55.00;;;;;;5052387;28;20041;-62
2021/08/22 02:45:38;;;;;;;2.53;1.73;;;25.50;55.00;;;;;;5045486;28;20060;-60
2021/08/22 02:48:04;;;;;;;2.67;2.00;;;25.50;55.00;;;;;;5034560;28;20040;-63
2021/08/22 02:50:30;;;;;;;2.50;1.90;;;25.50;55.00;;;;;;5046030;28;20033;-62
2021/08/22 02:52:55;;;;;;;2.10;1.80;;;25.50;54.90;;;;;;5038593;28;20044;-62
2021/08/22 02:55:22;;;;;;;2.40;1.80;;;25.50;55.00;;;;;;5033752;28;20115;-60
2021/08/22 02:57:47;;;;;;;2.90;2.00;;;25.50;55.00;;;;;;5046870;28;20487;-61
2021/08/22 03:00:14;;;;;;;2.67;2.10;;;25.50;55.00;;;;;;5049495;28;20021;-61
2021/08/22 03:02:39;;;;;;;2.15;1.70;;;25.50;55.00;;;;;;5033340;28;20606;-62
2021/08/22 03:05:05;;;;;;;2.50;1.90;;;25.50;54.90;;;;;;5038314;28;20026;-61
2021/08/22 03:07:31;;;;;;;2.47;1.98;;;25.50;55.00;;;;;;5040451;28;20362;-62
2021/08/22 03:09:56;;;;;;;2.50;1.98;;;25.50;55.00;;;;;;5042268;28;20029;-62
2021/08/22 03:12:22;;;;;;;2.45;1.88;;;25.50;54.90;;;;;;5028033;28;20182;-60
2021/08/22 03:14:48;;;;;;;2.85;1.90;;;25.50;54.90;;;;;;5042916;28;20029;-61
2021/08/22 03:17:14;;;;;;;3.10;2.10;;;25.50;54.90;;;;;;5043772;28;20033;-62
2021/08/22 03:19:39;;;;;;;2.83;2.08;;;25.50;54.90;;;;;;5040432;28;20112;-61
2021/08/22 03:22:05;;;;;;;2.42;1.80;;;25.50;54.90;;;;;;5039881;28;20120;-62
2021/08/22 03:24:31;;;;;;;2.50;1.92;;;25.50;54.90;;;;;;5036411;28;20551;-62
2021/08/22 03:26:56;;;;;;;3.53;2.00;;;25.50;54.90;;;;;;5035996;28;20076;-60
2021/08/22 03:29:22;;;;;;;2.00;1.80;;;25.50;55.00;;;;;;5048347;28;20053;-62
2021/08/22 03:31:47;;;;;;;2.35;1.75;;;25.40;54.90;;;;;;5043443;28;20412;-62
2021/08/22 03:34:13;;;;;;;2.40;1.83;;;25.40;54.90;;;;;;5047742;28;20021;-61
2021/08/22 03:36:38;;;;;;;2.30;1.80;;;25.40;54.90;;;;;;5043714;28;20104;-61
2021/08/22 03:39:05;;;;;;;2.70;1.90;;;25.40;54.80;;;;;;5036280;28;20393;-62
2021/08/22 03:41:33;;;;;;;2.47;1.83;;;25.50;54.90;;;;;;5028326;28;20044;-62
2021/08/22 03:43:59;;;;;;;2.85;1.92;;;25.40;54.80;;;;;;5028177;28;20139;-62
2021/08/22 03:46:25;;;;;;;2.50;1.90;;;25.40;54.90;;;;;;5033332;28;20518;-62
2021/08/22 03:48:50;;;;;;;2.60;1.90;;;25.40;54.90;;;;;;5044178;28;20064;-62
2021/08/22 03:51:16;;;;;;;3.60;1.80;;;25.40;54.80;;;;;;5047012;28;20096;-59
2021/08/22 03:53:42;;;;;;;2.53;1.92;;;25.40;54.80;;;;;;5029326;28;20026;-61
2021/08/22 03:56:07;;;;;;;2.88;1.90;;;25.40;54.90;;;;;;5042305;28;20111;-60
2021/08/22 03:58:33;;;;;;;2.70;2.10;;;25.40;54.80;;;;;;5047429;28;20040;-62
2021/08/22 04:01:00;;;;;;;2.30;1.88;;;25.40;54.90;;;;;;5031039;28;20034;-62
2021/08/22 04:03:26;;;;;;;2.30;1.75;;;25.40;54.80;;;;;;5031864;28;20055;-60
2021/08/22 04:05:52;;;;;;;2.40;1.77;;;25.40;54.90;;;;;;5039484;28;20025;-61
2021/08/22 04:08:24;;;;;;;2.83;1.85;;;25.40;54.80;;;;;;5043551;28;20025;-61
2021/08/22 04:10:51;;;;;;;2.10;1.70;;;25.40;54.80;;;;;;5038199;28;20025;-61
2021/08/22 04:13:16;;;;;;;2.40;1.80;;;25.40;54.80;;;;;;5032351;28;20044;-62
2021/08/22 04:15:43;;;;;;;2.30;1.75;;;25.40;54.80;;;;;;5046502;28;20085;-62
2021/08/22 04:18:09;;;;;;;2.30;1.70;;;25.40;54.80;;;;;;5034518;28;20017;-62
2021/08/22 04:20:35;;;;;;;2.30;1.80;;;25.40;54.80;;;;;;5035365;28;20043;-61
2021/08/22 04:23:01;;;;;;;2.60;1.90;;;25.40;54.80;;;;;;5038354;28;20032;-61
2021/08/22 04:25:27;;;;;;;2.53;1.80;;;25.40;54.80;;;;;;5042506;28;20037;-62
2021/08/22 04:27:52;;;;;;;2.20;1.70;;;25.40;54.80;;;;;;5029169;28;20030;-61
2021/08/22 04:30:18;;;;;;;2.60;1.83;;;25.40;54.80;;;;;;5039520;28;20021;-61
2021/08/22 04:32:44;;;;;;;2.22;1.70;;;25.40;54.80;;;;;;5045459;28;20033;-62
2021/08/22 04:35:10;;;;;;;2.28;1.73;;;25.40;54.80;;;;;;5046334;28;20025;-62
2021/08/22 04:37:36;;;;;;;2.15;1.75;;;25.40;54.80;;;;;;5036535;28;20025;-61
2021/08/22 04:40:02;;;;;;;2.55;1.92;;;25.40;54.90;;;;;;5040458;28;20127;-62
2021/08/22 04:42:28;;;;;;;2.50;2.08;;;25.40;54.80;;;;;;5037747;28;20389;-61
2021/08/22 04:44:54;;;;;;;2.50;1.80;;;25.40;54.90;;;;;;5047965;28;20041;-61
2021/08/22 04:47:19;;;;;;;2.60;1.90;;;25.40;54.90;;;;;;5042032;28;20037;-62
2021/08/22 04:49:45;;;;;;;2.40;1.83;;;25.40;54.80;;;;;;5039631;28;20111;-61
2021/08/22 04:52:10;;;;;;;2.28;1.70;;;25.30;54.80;;;;;;5046200;28;20432;-61
2021/08/22 04:54:36;;;;;;;2.10;1.70;;;25.30;55.30;;;;;;5047619;28;20124;-61
2021/08/22 04:57:02;;;;;;;2.75;2.00;;;25.30;54.80;;;;;;5049814;28;20024;-61
2021/08/22 04:59:27;;;;;;;2.30;1.70;;;25.30;54.80;;;;;;5057454;28;20067;-60
2021/08/22 05:01:53;;;;;;;2.58;1.80;;;25.30;54.80;;;;;;5045922;28;20040;-62
2021/08/22 05:04:19;;;;;;;2.20;1.60;;;25.30;54.80;;;;;;5031138;28;20087;-62
2021/08/22 05:06:44;;;;;;;2.38;1.67;;;25.40;54.90;;;;;;5036128;28;20390;-62
2021/08/22 05:09:10;;;;;;;1.98;1.60;;;25.30;54.80;;;;;;5033121;28;20370;-59
2021/08/22 05:11:35;;;;;;;2.35;1.77;;;25.30;54.80;;;;;;5041901;28;20105;-61
2021/08/22 05:14:01;;;;;;;2.40;1.80;;;25.30;54.80;;;;;;5051715;28;20061;-60
2021/08/22 05:16:27;;;;;;;2.20;1.75;;;25.30;54.80;;;;;;5052014;28;20086;-60
2021/08/22 05:18:52;;;;;;;2.20;1.70;;;25.30;54.80;;;;;;5051930;28;20024;-62
2021/08/22 05:21:18;;;;;;;2.38;1.80;;;25.30;54.80;;;;;;5050902;28;20056;-61
2021/08/22 05:23:43;;;;;;;2.72;1.75;;;25.30;54.80;;;;;;5050400;28;20423;-60
2021/08/22 05:26:09;;;;;;;2.30;1.80;;;25.30;54.80;;;;;;5049191;28;20150;-62
2021/08/22 05:28:35;;;;;;;2.33;1.80;;;25.30;54.80;;;;;;5050202;28;20354;-61
2021/08/22 05:31:02;;;;;;;2.15;1.70;;;25.30;54.80;;;;;;5050504;28;20056;-62
2021/08/22 05:33:27;;;;;;;2.63;1.98;;;25.30;54.80;;;;;;5047866;28;20040;-62
2021/08/22 05:35:53;;;;;;;2.50;1.60;;;25.30;54.80;;;;;;5049231;28;20051;-62
2021/08/22 05:38:19;;;;;;;2.42;1.77;;;25.30;54.80;;;;;;5049125;28;20059;-61
2021/08/22 05:40:44;;;;;;;2.00;1.67;;;25.30;54.80;;;;;;5053486;28;20021;-61
2021/08/22 05:43:10;;;;;;;2.00;1.70;;;25.30;54.80;;;;;;5050654;28;20102;-62
2021/08/22 05:45:35;;;;;;;2.80;2.10;;;25.30;54.80;;;;;;5052419;28;20032;-61
2021/08/22 05:48:01;;;;;;;2.10;1.70;;;25.30;54.80;;;;;;5049294;28;20033;-63
2021/08/22 05:50:27;;;;;;;2.10;1.65;;;25.30;54.80;;;;;;5052663;28;20036;-61
2021/08/22 05:52:52;;;;;;;1.98;1.63;;;25.30;54.80;;;;;;5048866;28;20102;-63
2021/08/22 05:55:18;;;;;;;2.15;1.70;;;25.30;54.80;;;;;;5052385;28;20021;-61
2021/08/22 05:57:43;;;;;;;2.20;1.60;;;25.30;54.80;;;;;;5050261;28;20040;-62
2021/08/22 06:00:10;;;;;;;2.22;1.60;;;25.20;54.80;;;;;;5051847;28;20049;-60
2021/08/22 06:02:36;;;;;;;2.80;2.00;;;25.20;54.80;;;;;;5043111;28;20425;-61
2021/08/22 06:05:05;;;;;;;2.88;2.10;;;25.20;55.00;;;;;;5042650;28;20040;-63
2021/08/22 06:07:31;;;;;;;3.10;2.28;;;25.20;55.10;;;;;;5039816;28;20061;-62
2021/08/22 06:09:57;;;;;;;4.78;2.33;;;25.10;55.20;;;;;;5036855;28;20060;-63
2021/08/22 06:12:23;;;;;;;2.97;2.17;;;25.10;55.40;;;;;;5041607;28;20080;-63
2021/08/22 06:14:49;;;;;;;3.22;2.47;;;25.10;55.60;;;;;;5045938;28;20044;-61
2021/08/22 06:17:15;;;;;;;2.88;2.28;;;25.10;55.70;;;;;;5042884;28;20034;-63
2021/08/22 06:19:41;;;;;;;3.58;2.40;;;25.10;55.90;;;;;;5046634;28;20080;-60
2021/08/22 06:22:06;;;;;;;3.30;2.38;;;25.10;55.90;;;;;;5052297;28;20024;-59
2021/08/22 06:24:33;;;;;;;4.85;2.50;;;25.10;55.90;;;;;;5043816;28;20037;-61
2021/08/22 06:26:59;;;;;;;2.95;2.30;;;25.10;55.90;;;;;;5038104;28;20340;-60
2021/08/22 06:29:25;;;;;;;3.10;2.42;;;25.10;56.00;;;;;;5044959;28;20116;-61
2021/08/22 06:31:51;;;;;;;3.63;2.60;;;25.10;56.00;;;;;;5049349;28;20495;-61
2021/08/22 06:34:17;;;;;;;4.25;2.47;;;25.10;56.00;;;;;;5049292;28;20111;-61
2021/08/22 06:36:42;;;;;;;3.70;2.58;;;25.00;56.00;;;;;;5042788;28;20104;-63
2021/08/22 06:39:09;;;;;;;3.50;2.80;;;25.00;56.10;;;;;;5042351;28;20068;-61
2021/08/22 06:41:35;;;;;;;3.40;2.55;;;25.00;56.10;;;;;;5037874;28;20119;-62
2021/08/22 06:44:01;;;;;;;4.57;2.70;;;25.00;56.40;;;;;;5049434;28;20040;-61
2021/08/22 06:46:27;;;;;;;3.42;2.60;;;24.90;56.30;;;;;;5059160;28;20484;-62
2021/08/22 06:48:52;;;;;;;3.33;2.45;;;24.90;56.30;;;;;;5047149;28;20215;-63
2021/08/22 06:51:18;;;;;;;3.35;2.40;;;24.90;56.20;;;;;;5046867;28;20021;-60
2021/08/22 06:53:44;;;;;;;3.30;2.22;;;24.90;56.20;;;;;;5046420;28;20128;-62
2021/08/22 06:56:10;;;;;;;2.50;2.08;;;25.00;56.20;;;;;;5051345;28;20081;-63
2021/08/22 06:58:35;;;;;;;3.58;2.40;;;25.00;56.10;;;;;;5044242;28;20037;-63
2021/08/22 07:01:01;;;;;;;3.65;2.40;;;25.00;56.10;;;;;;5046216;28;20037;-62
2021/08/22 07:03:27;;;;;;;3.53;2.10;;;25.00;56.00;;;;;;5048594;28;20515;-62
2021/08/22 07:05:53;;;;;;;2.75;2.20;;;25.00;56.00;;;;;;5044599;28;20098;-62
2021/08/22 07:08:19;;;;;;;3.20;2.30;;;25.00;56.00;;;;;;5041411;28;20045;-61
2021/08/22 07:10:45;;;;;;;4.88;2.38;;;25.00;55.90;;;;;;5031832;28;20025;-63
2021/08/22 07:13:10;;;;;;;2.80;2.22;;;25.00;55.90;;;;;;5038426;28;20033;-61
2021/08/22 07:15:36;;;;;;;3.85;2.10;;;25.00;55.90;;;;;;5048609;28;20029;-60
2021/08/22 07:18:02;;;;;;;3.25;2.38;;;25.00;55.90;;;;;;5035561;28;20052;-62
2021/08/22 07:20:28;;;;;;;2.63;2.15;;;25.00;55.80;;;;;;5048057;28;20036;-62
2021/08/22 07:22:53;;;;;;;3.22;2.53;;;25.00;55.80;;;;;;5045139;28;20034;-62
2021/08/22 07:25:21;;;;;;;3.47;2.58;;;25.00;55.90;;;;;;5035773;28;20673;-62
2021/08/22 07:27:47;;;;;;;2.78;2.15;;;25.00;55.80;;;;;;5041784;28;20544;-62
2021/08/22 07:30:13;;;;;;;3.38;2.40;;;25.00;55.80;;;;;;5046893;28;20089;-61
2021/08/22 07:32:40;;;;;;;3.58;2.15;;;24.90;55.70;;;;;;5048263;28;20430;-62
2021/08/22 07:35:06;;;;;;;2.60;2.15;;;25.00;55.80;;;;;;5045940;28;20519;-62
2021/08/22 07:37:32;;;;;;;3.65;2.30;;;25.00;55.70;;;;;;5052224;28;20136;-61
2021/08/22 07:39:58;;;;;;;3.30;2.17;;;25.00;55.80;;;;;;5048651;28;20027;-61
2021/08/22 07:42:23;;;;;;;3.03;2.30;;;25.00;55.70;;;;;;5027125;28;20104;-62
2021/08/22 07:44:49;;;;;;;2.60;2.10;;;25.00;55.70;;;;;;5041338;28;20057;-60
2021/08/22 07:47:15;;;;;;;2.55;2.00;;;25.00;55.70;;;;;;5041537;28;20025;-62
2021/08/22 07:49:40;;;;;;;2.28;1.90;;;24.90;55.60;;;;;;5050467;28;20016;-61
2021/08/22 07:52:06;;;;;;;3.33;2.20;;;25.00;55.70;;;;;;5044965;28;20491;-61
2021/08/22 07:54:32;;;;;;;2.72;2.25;;;24.90;55.60;;;;;;5046941;28;20028;-63
2021/08/22 07:56:57;;;;;;;2.65;2.10;;;24.90;55.60;;;;;;5037349;28;20037;-62
2021/08/22 07:59:23;;;;;;;2.67;2.10;;;25.00;55.60;;;;;;5048921;28;20385;-63
2021/08/22 08:01:49;;;;;;;2.90;2.17;;;25.00;55.60;;;;;;5047886;28;20032;-61
2021/08/22 08:04:14;;;;;;;3.05;2.30;;;25.00;55.60;;;;;;5044130;28;20033;-59
2021/08/22 08:06:40;;;;;;;3.47;2.10;;;25.00;55.60;;;;;;5042346;28;20063;-61
2021/08/22 08:09:06;;;;;;;2.97;2.00;;;25.00;55.60;;;;;;5035055;28;20112;-61
2021/08/22 08:11:31;;;;;;;3.08;2.22;;;25.00;55.60;;;;;;5042297;28;20032;-62
2021/08/22 08:13:57;;;;;;;3.20;2.20;;;25.00;55.60;;;;;;5037653;28;20519;-61
2021/08/22 08:16:23;;;;;;;2.80;2.10;;;25.00;55.50;;;;;;5029565;28;20421;-63
2021/08/22 08:18:48;;;;;;;3.17;2.17;;;25.00;55.60;;;;;;5025889;28;20029;-62
2021/08/22 08:21:14;;;;;;;2.78;2.10;;;25.00;55.50;;;;;;5046537;28;20039;-62
2021/08/22 08:23:40;;;;;;;2.70;2.15;;;25.00;55.50;;;;;;5043372;28;20064;-62
2021/08/22 08:26:05;;;;;;;2.63;2.00;;;25.00;55.50;;;;;;5037662;28;20048;-61
2021/08/22 08:28:31;;;;;;;2.80;2.10;;;25.00;55.50;;;;;;5035900;28;20108;-62
2021/08/22 08:30:57;;;;;;;2.80;2.00;;;25.00;55.50;;;;;;5042055;28;20033;-63
2021/08/22 08:33:23;;;;;;;3.22;2.20;;;25.00;55.50;;;;;;5042811;28;20028;-62
2021/08/22 08:35:49;;;;;;;3.50;2.00;;;25.00;55.50;;;;;;5044266;28;20115;-61
2021/08/22 08:38:14;;;;;;;2.80;2.10;;;25.00;55.50;;;;;;5039739;28;20376;-63
2021/08/22 08:40:41;;;;;;;2.80;2.13;;;25.00;55.50;;;;;;5043107;28;20026;-60
2021/08/22 08:43:07;;;;;;;2.80;2.00;;;25.00;55.50;;;;;;5044248;28;20033;-63
2021/08/22 08:45:53;;;;;;;3.20;2.20;;;25.00;55.50;;;;;;5043879;28;20029;-61
2021/08/22 08:48:24;;;;;;;2.88;2.10;;;25.00;55.50;;;;;;5035222;28;20057;-62
2021/08/22 08:51:31;;;;;;;2.42;1.80;;;25.00;55.50;;;;;;5037150;28;20075;-61
2021/08/22 08:53:59;;;;;;;3.20;2.10;;;25.00;55.50;;;;;;5011070;28;20493;-61
2021/08/22 08:56:34;;;;;;;2.42;2.00;;;25.00;55.50;;;;;;5041427;28;20043;-63
2021/08/22 08:59:00;;;;;;;2.47;1.90;;;25.00;55.50;;;;;;5029600;28;20106;-63
2021/08/22 09:01:26;;;;;;;2.70;2.00;;;25.00;55.50;;;;;;5045976;28;20075;-61
2021/08/22 09:04:19;;;;;;;2.50;1.92;;;25.00;56.00;;;;;;5043539;28;20114;-61
2021/08/22 09:07:33;;;;;;;2.72;2.03;;;25.00;55.50;;;;;;5041051;28;20064;-63
2021/08/22 09:10:34;;;;;;;2.83;1.98;;;25.00;55.50;;;;;;4985958;28;20037;-62
2021/08/22 09:13:31;;;;;;;2.97;2.25;;;25.00;55.50;;;;;;5048264;28;20034;-61
2021/08/22 09:16:34;;;;;;;2.67;1.95;;;25.00;55.50;;;;;;5043310;28;20277;-62
2021/08/22 09:19:50;;;;;;;3.13;2.10;;;25.00;55.50;;;;;;5043791;28;20143;-64
2021/08/22 09:22:53;;;;;;;2.90;2.15;;;25.00;55.50;;;;;;5019792;28;20045;-64
2021/08/22 09:25:40;;;;;;;2.75;2.00;;;25.00;55.40;;;;;;5043636;28;20366;-61
2021/08/22 09:28:47;;;;;;;2.55;2.10;;;25.00;55.50;;;;;;5040104;28;20513;-62
2021/08/22 09:32:06;;;;;;;2.90;2.00;;;25.00;55.50;;;;;;4989075;28;20046;-64
2021/08/22 09:35:00;;;;;;;2.80;2.10;;;25.00;55.40;;;;;;5033393;28;20033;-61
2021/08/22 09:37:28;;;;;;;2.63;1.85;;;25.00;55.40;;;;;;5040747;28;20033;-61
2021/08/22 09:40:22;;;;;;;2.60;2.00;;;25.00;55.50;;;;;;5041861;28;20028;-63
2021/08/22 09:43:28;;;;;;;3.47;1.92;;;25.00;55.50;;;;;;5048059;28;20045;-61
2021/08/22 09:46:31;;;;;;;2.53;1.92;;;25.00;55.50;;;;;;5040737;28;20033;-61
2021/08/22 09:49:34;;;;;;;3.78;2.30;;;25.00;55.50;;;;;;5040253;28;20025;-63
2021/08/22 09:52:24;;;;;;;3.35;2.30;;;25.10;55.70;;;;;;5038853;28;20352;-63
2021/08/22 09:55:34;;;;;;;3.45;2.47;;;25.00;55.60;;;;;;5043355;28;20053;-61
2021/08/22 09:58:35;;;;;;;2.85;2.03;;;25.00;55.50;;;;;;5033372;28;20041;-63
2021/08/22 10:01:38;;;;;;;3.05;2.17;;;25.00;55.40;;;;;;5040268;28;20098;-62
2021/08/22 10:04:22;;;;;;;2.88;2.03;;;25.00;55.40;;;;;;5056980;28;20552;-62
2021/08/22 10:06:53;;;;;;;3.28;2.08;;;25.00;55.40;;;;;;5045746;28;20037;-62
2021/08/22 10:09:46;;;;;;;4.55;2.50;;;25.00;55.40;;;;;;5047608;28;20053;-63
2021/08/22 10:12:12;;;;;;;3.25;2.20;;;25.00;55.40;;;;;;5041826;28;20119;-60
2021/08/22 10:14:39;;;;;;;3.00;2.20;;;25.00;55.40;;;;;;5042883;28;20115;-59
2021/08/22 10:17:07;;;;;;;3.25;2.17;;;25.00;55.40;;;;;;5050216;28;20021;-62
2021/08/22 10:19:32;;;;;;;3.00;2.00;;;25.00;55.40;;;;;;5047369;28;20158;-61
2021/08/22 10:22:12;;;;;;;3.30;2.20;;;25.00;55.40;;;;;;5037748;28;20434;-64
2021/08/22 10:24:37;;;;;;;3.05;2.20;;;25.10;55.50;;;;;;5041428;28;20491;-60
2021/08/22 10:27:04;;;;;;;3.05;2.20;;;25.00;55.40;;;;;;5044146;28;20025;-62
2021/08/22 10:29:50;;;;;;;3.58;2.47;;;25.00;55.40;;;;;;5043561;28;20091;-63
2021/08/22 10:32:16;;;;;;;3.80;2.40;;;25.00;55.40;;;;;;5037076;28;20051;-63
2021/08/22 10:34:43;;;;;;;3.95;2.45;;;25.10;55.40;;;;;;5038067;28;20025;-61
2021/08/22 10:37:29;;;;;;;4.18;2.45;;;25.00;55.40;;;;;;5042105;28;20029;-61
2021/08/22 10:39:56;;;;;;;4.85;2.70;;;25.00;55.50;;;;;;5039913;28;20037;-63
2021/08/22 10:42:24;;;;;;;4.25;2.60;;;25.00;55.40;;;;;;5039443;28;20045;-59
2021/08/22 10:44:50;;;;;;;4.18;2.60;;;25.10;55.50;;;;;;5042198;28;20028;-62
2021/08/22 10:47:21;;;;;;;4.85;2.70;;;25.10;55.50;;;;;;5041919;28;20432;-61
2021/08/22 10:49:52;;;;;;;7.05;3.00;;;25.10;55.50;;;;;;5038700;28;20400;-63
2021/08/22 10:52:35;;;;;;;4.45;2.92;;;25.00;55.50;;;;;;5042052;28;20074;-62
2021/08/22 10:55:13;;;;;;;4.65;3.10;;;25.00;55.50;;;;;;5047990;28;20441;-63
2021/08/22 10:57:44;;;;;;;6.00;3.20;;;25.10;55.70;;;;;;5048955;28;20057;-61
2021/08/22 11:00:21;;;;;;;5.30;3.03;;;25.00;55.70;;;;;;5040490;28;20039;-61
2021/08/22 11:02:47;;;;;;;6.68;3.03;;;25.00;55.70;;;;;;5048178;28;20125;-64
2021/08/22 11:05:18;;;;;;;5.18;3.30;;;25.00;55.70;;;;;;5047707;28;20569;-62
2021/08/22 11:07:44;;;;;;;5.30;3.00;;;25.10;56.10;;;;;;5049268;28;20091;-61
2021/08/22 11:10:14;;;;;;;4.85;2.92;;;25.10;56.30;;;;;;5044210;28;20041;-61
2021/08/22 11:12:41;;;;;;;5.88;3.10;;;25.00;56.90;;;;;;5045668;28;20045;-63
2021/08/22 11:15:08;;;;;;;4.47;2.70;;;25.00;56.40;;;;;;5047841;28;20025;-62
2021/08/22 11:17:35;;;;;;;4.00;2.90;;;25.00;56.40;;;;;;5048175;28;20104;-63
2021/08/22 11:20:12;;;;;;;4.20;2.55;;;25.10;56.40;;;;;;5048137;28;20492;-63
2021/08/22 11:22:38;;;;;;;3.67;2.55;;;25.10;56.30;;;;;;5046757;28;20032;-63
2021/08/22 11:25:04;;;;;;;4.05;2.30;;;25.10;56.20;;;;;;5046964;28;20039;-61
2021/08/22 11:27:30;;;;;;;4.22;2.58;;;25.10;56.00;;;;;;5048186;28;20057;-63
2021/08/22 11:30:06;;;;;;;3.70;2.63;;;25.10;56.00;;;;;;5042084;28;20106;-61
2021/08/22 11:32:32;;;;;;;3.53;2.45;;;25.10;55.90;;;;;;5045756;28;20149;-61
2021/08/22 11:35:13;;;;;;;3.22;2.33;;;25.10;55.90;;;;;;5043826;28;20116;-62
2021/08/22 11:37:38;;;;;;;3.45;2.13;;;25.10;55.80;;;;;;5041896;28;20493;-63
2021/08/22 11:40:10;;;;;;;3.28;2.30;;;25.10;55.80;;;;;;5044309;28;20040;-59
2021/08/22 11:42:36;;;;;;;3.72;2.35;;;25.00;55.70;;;;;;5036513;28;20117;-63
2021/08/22 11:45:10;;;;;;;3.80;2.40;;;25.10;55.70;;;;;;5038349;28;20157;-62
2021/08/22 11:47:37;;;;;;;2.88;2.25;;;25.00;55.70;;;;;;5043099;28;20040;-62
2021/08/22 11:50:08;;;;;;;4.25;2.42;;;25.10;55.70;;;;;;5035467;28;20047;-60
2021/08/22 11:52:36;;;;;;;2.70;2.20;;;25.00;55.60;;;;;;5045473;28;20028;-62
2021/08/22 11:55:07;;;;;;;3.40;2.38;;;25.10;55.70;;;;;;5041499;28;20061;-62
2021/08/22 11:57:33;;;;;;;3.20;2.28;;;25.10;55.70;;;;;;5037130;28;20037;-62
2021/08/22 12:00:04;;;;;;;3.70;2.50;;;25.10;55.60;;;;;;5044097;28;20679;-63
2021/08/22 12:02:30;;;;;;;3.17;2.50;;;25.10;55.60;;;;;;5054439;28;20428;-61
2021/08/22 12:05:15;;;;;;;3.28;2.20;;;25.10;55.50;;;;;;5041248;28;20063;-62
2021/08/22 12:07:45;;;;;;;3.05;2.10;;;25.10;55.50;;;;;;5037094;28;20033;-61
2021/08/22 12:10:22;;;;;;;4.38;2.40;;;25.10;55.50;;;;;;5042336;28;20025;-63
2021/08/22 12:12:48;;;;;;;3.45;2.20;;;25.10;55.50;;;;;;5037539;28;20041;-62
2021/08/22 12:15:14;;;;;;;3.22;2.40;;;25.10;55.50;;;;;;5041231;28;20111;-61
2021/08/22 12:17:39;;;;;;;3.17;2.30;;;25.10;55.50;;;;;;5037110;28;20048;-60
2021/08/22 12:20:16;;;;;;;3.30;2.38;;;25.10;55.50;;;;;;5042124;28;20060;-62
2021/08/22 12:22:41;;;;;;;3.00;2.15;;;25.10;55.50;;;;;;5029673;28;20068;-57
2021/08/22 12:25:07;;;;;;;4.43;2.50;;;25.10;55.50;;;;;;5041381;28;20405;-64
2021/08/22 12:27:36;;;;;;;2.75;2.00;;;25.10;55.50;;;;;;5035505;28;20419;-63
2021/08/22 12:30:05;;;;;;;;;;;25.10;55.50;;;;;;5033998;28;20112;-62
2021/08/22 12:32:36;;;;;;;3.35;2.45;;;25.10;55.40;;;;;;5044569;28;20345;-64
2021/08/22 12:35:07;;;;;;;3.22;2.20;;;25.10;55.30;;;;;;5037938;28;20587;-61
2021/08/22 12:37:32;;;;;;;2.88;2.20;;;25.10;55.40;;;;;;5040665;28;20037;-63
2021/08/22 12:40:00;;;;;;;3.58;2.40;;;25.10;55.40;;;;;;5043306;28;20044;-61
2021/08/22 12:42:26;;;;;;;3.30;2.33;;;25.10;55.40;;;;;;5043272;28;20033;-60
2021/08/22 12:44:52;;;;;;;3.05;2.13;;;25.10;55.40;;;;;;5051563;28;20025;-62
2021/08/22 12:47:18;;;;;;;3.17;2.05;;;25.10;55.50;;;;;;5040916;28;20109;-61
2021/08/22 12:49:43;;;;;;;3.30;2.50;;;25.10;55.50;;;;;;5039578;28;21869;-61
2021/08/22 12:52:09;;;;;;;2.90;2.08;;;25.10;55.40;;;;;;5038807;28;20106;-61
2021/08/22 12:54:36;;;;;;;3.15;2.22;;;25.10;55.40;;;;;;5036122;28;20477;-61
2021/08/22 12:57:03;;;;;;;3.38;2.38;;;25.10;55.40;;;;;;5041266;28;20382;-57
2021/08/22 12:59:29;;;;;;;3.00;2.00;;;25.10;55.40;;;;;;5038927;28;20468;-60